Česky Dansk Deutsch English Español Suomi Français Magyar Italiano Nederlands norsk Polski Português svenska Türkçe

 

Het Weer

Kemi (Finland)

20:20, 18 augustus 2016 (GMT)

NWNNE
WE
SWSSE
Home            
Kemi Hailuoto Oulu Rovaniemi Lulea / Kallax Pello Pudasjarvi Sodankyla Vidsel Skelleftea Airport Kuusamo Kittila Kajaani Suomussalmi Gallivare Kruunupyy Jokkmokk Enontekio Kiruna Airport Umea Flygplats Lycksele Viitasaari Kauhava

Om een weerknop op uw website of weblog te plaatsen, copieer onderstaande code en plak die in uw pagina. In het eerste vakje staat HTML-code, in het tweede vakje UBB-code.


Add to Google

Details

Wind speed:2 bf, 5 kn, 2.6 m/s, 5.8 miles/h, 9.3 km/h
Wind direction:NE, 040° - E, 100°
Visibility:Greater than 10000 m, 10 km, 32800 ft, 6.2 miles
Clouds:CAVOC
Temperature:17°C, 63°F
Dew-point:13°C, 55°F
Atmospheric pressure:1022 hPa, 766.6 mmHg, 30.18 inHg, 1.009 atm
Relative humidity:77.3 %
METAR:EFKE 182020Z AUTO 07005KT 040V100 CAVOK 17/13 Q1022

Snelkoppelingen

Actuele weersinformatie van de hele wereld. Voeg locaties toe met het plus (+) symbool. Deze snelkoppelingen kunnen worden toegevoegd aan Google.

Lid van de Technetium groep

website free tracking
StatCounter NetStat W3C Validator

06-12-2019 10:35:50
astro.technetium.be money.technetium.be phote.technetium.be tafeltennistafel.technetium.be www.ligfiets.net